Coquille, OR

7:09 AM PDT on October 23, 2014 (GMT -0700)
Coquille, E. 7th Street, | Change Station
CLOSE
Current Station
Personal Weather Station
Location: Coquille, OR
Elevation: 121 ft
Nearby Weather Stations

Elev 121 ft 43.18 °N, 124.18 °W | Updated 11 minutes ago

Rain
Rain
57.0 °F
Feels Like 57.0 °F
N
9.4
Wind Variable Wind from WSW

Today
High -- | Low -- °F
--% Chance of Precip.
Yesterday
High -- | Low -- °F
Precip. -- in
7:40 AM 6:21 PM
Waning Crescent, 0% visible
Pressure 29.87 in
Visibility 10.0 miles
Clouds Few 2300 ft
Scattered Clouds 3500 ft
Overcast 5500 ft
Dew Point 50 °F
Humidity 78%
Rainfall 0.09 in
Snow Depth Not available.
UV 0 out of 12
Pollen .30 out of 12
Air Quality Not available.
Flu Activity Sporadic
METAR KOTH 231355Z 19006KT 10SM FEW023 SCT035 OVC055 13/13 A2987 RMK AO1 P0002

More Conditions Fewer Conditions

Pressure 29.87 in
Visibility 10.0 miles
Clouds Few 2300 ft
Scattered Clouds 3500 ft
Overcast 5500 ft
Dew Point 50 °F
Humidity 78%
Rainfall 0.09 in
Snow Depth Not available.
UV 0 out of 12
Pollen .30 out of 12
Air Quality Not available.
Flu Activity Sporadic
METAR KOTH 231355Z 19006KT 10SM FEW023 SCT035 OVC055 13/13 A2987 RMK AO1 P0002

More Conditions Fewer Conditions

10-Day Weather Forecast

Almanac

Astronomy

Oct. 23, 2014 Rise Set
Actual Time 7:40 AM PDT 6:21 PM PDT
Civil Twilight 7:11 AM PDT 6:50 PM PDT
Nautical Twilight 6:38 AM PDT 7:23 PM PDT
Astronomical Twilight 6:05 AM PDT 7:56 PM PDT
Moon 7:25 AM PDT 6:25 PM PDT
Length of Visible Light 11h 38m
Length of Day
10h 40m
Tomorrow will be 2m 45s shorter.
Waning Crescent, 0% of the Moon is Illuminated
Today
Waning Crescent
Oct 23
New
Oct 30
First Quarter
Nov 6
Full
Nov 14
Last Quarter

Today's Extremes

State Highs State Lows

Community

WunderPhotos

Upload Photos

1,764,247 photos uploaded!

Nearby

Snow Depth

Station Depth Elevation
Holland Meadows 0 in 4900 ft
King Mountain 0 in 4000 ft
Diamond Lake 0 in 5315 ft
Big Red Mountain 0 in 6250 ft
Annie Springs 0 in 6020 ft

Earthquake Activity

City Distance Mag. Time & Date
Crescent City, California 112 miles 2.6 1:22 AM PDT
2014-10-21
Minimum magnitude displayed is 2.5.

Coastal Water Temperatures

Place Temperature
Port Orford, OR 59.0 °F
Charleston, OR 57.9 °F
South Beach, OR 60.1 °F

Nearby Weather Stations